Latest Weather Observations for Amberley

IDQ60901

Issued at 6:01 pm EST Wednesday 4 May 2016 (issued every 10 minutes, with the page automatically refreshed every 10 minutes)

About weather observations | Map of Brisbane area stations | Latest observations for Brisbane area | Other Formats
Station Details ID: 040004 Name: AMBERLEY AMO Lat: -27.63 Lon: 152.71 Height: 24.2 m
Data from the previous 72 hours. | See also: Recent months at Amberley
Date/Time
EST
Tmp

°C
App
Tmp
°C
Dew
Point
°C
Rel
Hum
%
Delta-T

°C
Wind Press
QNH
hPa
Press
MSL
hPa
Rain
since
9 am
mm
Dir
 
Spd
km/h
Gust
km/h
Spd
kts
Gust
kts
04/05:30pm 23.4 20.4 11.9 48 6.5 NE 19 26 10 14 1015.4 1015.4 0.0
04/05:00pm 24.6 21.0 11.7 44 7.3 NE 22 32 12 17 1014.9 1014.9 0.0
04/04:30pm 26.4 21.9 6.2 27 10.5 ENE 19 26 10 14 1014.3 1014.3 0.0
04/04:00pm 27.3 23.2 6.0 25 11.1 ENE 17 24 9 13 1013.9 1013.9 0.0
04/03:30pm 27.8 24.5 4.4 22 11.9 ENE 11 19 6 10 1013.7 1013.6 0.0
04/03:00pm 28.5 26.4 4.1 21 12.4 SW 4 13 2 7 1013.5 1013.4 0.0
04/02:30pm 28.3 25.1 3.3 20 12.5 SW 9 13 5 7 1013.4 1013.3 0.0
04/02:00pm 27.2 24.7 3.9 22 11.7 SW 6 11 3 6 1013.5 1013.4 0.0
04/01:30pm 28.0 24.1 3.4 20 12.3 S 13 20 7 11 1013.4 1013.3 0.0
04/01:00pm 28.2 24.9 4.5 22 12.1 W 11 15 6 8 1013.7 1013.6 0.0
04/12:30pm 26.3 24.4 6.9 29 10.2 NNE 6 13 3 7 1014.1 1014.1 0.0
04/12:00pm 27.0 24.8 7.8 29 10.3 SSW 9 17 5 9 1014.6 1014.6 0.0
04/11:30am 26.2 23.9 5.9 27 10.5 SW 7 17 4 9 1015.3 1015.3 0.0
04/11:00am 25.9 23.9 8.5 33 9.4 SSW 9 17 5 9 1015.9 1015.9 0.0
04/10:30am 25.1 22.6 6.6 30 9.6 SSW 9 15 5 8 1016.3 1016.3 0.0
04/10:00am 23.7 22.3 9.5 40 7.7 SSW 7 15 4 8 1016.7 1016.7 0.0
04/09:30am 23.1 22.1 12.4 51 6.1 S 9 15 5 8 1016.9 1016.9 0.0
04/09:00am 21.7 20.9 12.9 57 5.0 S 9 13 5 7 1017.0 1017.0 0.0
04/08:30am 20.3 21.8 15.8 75 2.7 S 2 7 1 4 1017.0 1017.0 0.0
04/08:00am 17.8 19.2 15.4 86 1.4 SSW 2 7 1 4 1016.7 1016.7 0.0
04/07:30am 16.1 16.0 14.9 93 0.7 SW 9 11 5 6 1016.0 1016.0 0.0
04/07:00am 14.3 14.5 13.2 93 0.6 S 4 11 2 6 1015.6 1015.6 0.0
04/06:30am 14.3 14.5 13.0 92 0.7 S 4 7 2 4 1015.2 1015.2 0.0
04/06:00am 14.5 15.6 13.6 94 0.5 CALM 0 2 0 1 1014.7 1014.7 0.0
04/05:35am 15.2 14.8 14.0 92 0.7 NNW 9 13 5 7 1014.2 1014.2 0.0
04/05:30am 15.0 14.5 13.8 92 0.7 NNW 9 13 5 7 1014.0 1014.0 0.0
04/05:00am 14.9 14.8 14.0 94 0.5 ESE 7 11 4 6 1013.5 1013.4 0.0
04/04:30am 14.5 14.5 13.6 94 0.5 NW 6 13 3 7 1013.4 1013.3 0.0
04/04:00am 14.4 15.6 13.7 96 0.4 CALM 0 0 0 0 1013.1 1013.0 0.0
04/03:30am 15.4 16.8 14.3 93 0.6 CALM 0 0 0 0 1012.9 1012.8 0.0
04/03:00am 15.8 17.4 14.8 94 0.6 CALM 0 0 0 0 1012.9 1012.8 0.0
04/02:30am 16.1 17.8 15.1 94 0.6 CALM 0 0 0 0 1012.7 1012.6 0.0
04/02:00am 16.0 17.7 15.1 94 0.5 CALM 0 0 0 0 1012.9 1012.8 0.0
04/01:30am 17.0 18.7 15.3 90 1.0 CALM 0 0 0 0 1013.1 1013.0 0.0
04/01:00am 17.3 19.1 15.6 90 1.0 CALM 0 0 0 0 1013.2 1013.1 0.0
04/12:30am 17.2 19.0 15.5 90 1.0 CALM 0 0 0 0 1013.2 1013.1 0.0
04/12:00am 17.8 19.6 15.6 87 1.3 CALM 0 0 0 0 1013.2 1013.1 0.0
 
Date/Time
EST
Tmp

°C
App
Tmp
°C
Dew
Point
°C
Rel
Hum
%
Delta-T

°C
Wind Press
QNH
hPa
Press
MSL
hPa
Rain
since
9 am
mm
Dir
 
Spd
km/h
Gust
km/h
Spd
kts
Gust
kts
03/11:30pm 18.0 19.9 15.8 87 1.3 CALM 0 0 0 0 1013.4 1013.3 0.0
03/11:00pm 18.2 20.1 15.7 85 1.5 CALM 0 0 0 0 1013.4 1013.3 0.0
03/10:30pm 19.1 19.4 15.0 77 2.4 N 7 9 4 5 1013.4 1013.3 0.0
03/10:00pm 18.4 18.7 15.9 85 1.5 NNW 9 11 5 6 1013.5 1013.4 0.0
03/09:30pm 19.4 21.0 15.0 75 2.6 CALM 0 0 0 0 1013.4 1013.3 0.0
03/09:00pm 19.8 19.9 15.4 76 2.6 SW 9 11 5 6 1013.5 1013.4 0.0
03/08:30pm 21.9 21.9 14.2 61 4.5 SW 7 9 4 5 1013.6 1013.5 0.0
03/08:00pm 20.3 20.5 14.8 70 3.2 SW 7 9 4 5 1013.3 1013.2 0.0
03/07:30pm 20.7 21.0 15.9 74 2.9 SSE 9 9 5 5 1012.9 1012.8 0.0
03/07:00pm 23.8 23.0 14.1 54 5.7 WSW 11 13 6 7 1012.3 1012.2 0.0
03/06:30pm 23.9 23.1 14.0 54 5.8 WSW 11 15 6 8 1012.0 1011.9 0.0
03/06:00pm 24.0 23.9 15.0 57 5.4 W 9 9 5 5 1011.5 1011.4 0.0
03/05:30pm 24.8 24.1 14.4 52 6.2 W 11 15 6 8 1011.1 1011.0 0.0
03/05:00pm 24.8 23.7 14.2 51 6.3 W 13 19 7 10 1010.6 1010.5 0.0
03/04:30pm 26.4 23.8 13.7 45 7.5 W 20 35 11 19 1010.6 1010.5 0.0
03/04:00pm 28.0 24.0 14.0 42 8.4 W 28 37 15 20 1010.3 1010.2 0.0
03/03:30pm 28.5 24.8 14.0 41 8.7 W 26 35 14 19 1010.1 1010.0 0.0
03/03:00pm 28.7 25.0 13.8 40 8.9 W 26 35 14 19 1009.9 1009.8 0.0
03/02:30pm 28.6 25.6 13.7 40 8.9 WNW 22 32 12 17 1010.0 1009.9 0.0
03/02:00pm 29.4 27.8 15.0 41 8.8 W 17 30 9 16 1010.2 1010.1 0.0
03/01:30pm 28.8 27.2 15.0 43 8.4 WNW 17 24 9 13 1010.5 1010.4 0.0
03/01:00pm 27.8 27.2 15.6 47 7.5 WNW 13 20 7 11 1010.9 1010.8 0.0
03/12:30pm 26.7 26.3 16.1 52 6.5 W 13 19 7 10 1011.4 1011.3 0.0
03/12:00pm 26.6 25.8 16.0 52 6.5 WNW 15 20 8 11 1011.9 1011.8 0.0
03/11:30am 25.7 25.5 16.6 57 5.6 W 13 20 7 11 1012.6 1012.5 0.0
03/11:00am 24.5 24.5 17.3 64 4.5 WNW 13 17 7 9 1013.2 1013.1 0.0
03/10:30am 24.4 24.5 17.5 65 4.3 WNW 13 20 7 11 1013.8 1013.7 0.0
03/10:00am 22.9 23.2 17.0 69 3.6 WSW 11 19 6 10 1014.1 1014.1 0.0
03/09:30am 22.5 24.4 18.5 78 2.5 WNW 6 11 3 6 1014.3 1014.3 0.0
03/09:00am 21.8 22.9 18.8 83 1.9 WNW 11 15 6 8 1014.5 1014.5 7.2
03/08:51am 21.6 22.3 18.9 84 1.7 NW 13 17 7 9 1014.6 1014.6 7.2
03/08:30am 20.1 20.7 18.5 90 1.0 NW 13 17 7 9 1014.8 1014.8 7.2
03/08:00am 19.0 19.9 18.4 96 0.4 NNW 11 15 6 8 1014.8 1014.8 7.2
03/07:30am 18.9 20.5 18.3 96 0.4 NNW 7 11 4 6 1014.5 1014.5 7.2
03/07:25am 19.0 21.5 18.2 95 0.5 N 2 9 1 5 1014.5 1014.5 7.2
03/07:11am 18.6 20.6 17.9 96 0.4 N 4 7 2 4 1014.4 1014.4 7.2
03/07:00am 18.4 20.4 17.9 97 0.3 N 4 7 2 4 1014.2 1014.2 7.2
03/06:30am 18.4 21.1 17.7 96 0.4 CALM 0 0 0 0 1014.1 1014.1 7.2
03/06:00am 18.6 21.4 17.9 96 0.4 CALM 0 0 0 0 1014.0 1014.0 7.2
03/05:30am 18.6 21.4 17.9 96 0.4 CALM 0 0 0 0 1013.7 1013.6 7.2
03/05:00am 18.6 21.4 17.9 96 0.4 CALM 0 0 0 0 1013.5 1013.4 7.2
03/04:30am 18.4 21.0 17.6 95 0.5 CALM 0 0 0 0 1013.2 1013.1 7.2
03/04:00am 18.6 20.6 17.9 96 0.4 SW 4 7 2 4 1013.3 1013.2 7.2
03/03:30am 18.6 20.5 17.6 94 0.6 SW 4 9 2 5 1013.3 1013.2 7.2
03/03:00am 18.6 20.2 17.8 95 0.5 WSW 6 9 3 5 1013.4 1013.3 7.2
03/02:46am 18.6 18.9 17.8 95 0.5 SW 13 17 7 9 1013.8 1013.7 7.2
03/02:30am 18.6 20.6 17.8 95 0.5 W 4 9 2 5 1013.4 1013.3 6.8
03/02:00am 18.6 20.1 17.6 94 0.6 NW 6 9 3 5 1013.6 1013.5 6.6
03/01:32am 18.7 20.2 17.6 93 0.7 WNW 6 13 3 7 1014.6 1014.6 6.6
03/01:30am 18.7 21.0 17.6 93 0.7 NW 2 9 1 5 1014.4 1014.4 6.6
03/01:00am 18.7 20.0 17.6 93 0.7 SSW 7 9 4 5 1014.6 1014.6 6.6
03/12:57am 18.6 20.1 17.6 94 0.6 S 6 9 3 5 1014.5 1014.5 6.6
03/12:52am 18.6 20.4 17.5 93 0.7 SSE 4 7 2 4 1014.4 1014.4 6.6
03/12:30am 18.9 19.7 17.4 91 0.9 S 9 15 5 8 1014.7 1014.7 6.6
03/12:00am 19.1 19.6 17.5 90 1.0 SW 11 13 6 7 1015.5 1015.5 6.6
 
Date/Time
EST
Tmp

°C
App
Tmp
°C
Dew
Point
°C
Rel
Hum
%
Delta-T

°C
Wind Press
QNH
hPa
Press
MSL
hPa
Rain
since
9 am
mm
Dir
 
Spd
km/h
Gust
km/h
Spd
kts
Gust
kts
02/11:30pm 19.2 19.8 17.6 90 1.0 WSW 11 13 6 7 1015.5 1015.5 6.6
02/11:22pm 19.0 19.2 17.7 92 0.8 SSW 13 19 7 10 1015.4 1015.4 6.6
02/11:14pm 18.9 18.8 17.8 93 0.7 SW 15 19 8 10 1015.1 1015.1 6.6
02/11:00pm 18.9 18.3 17.6 92 0.8 SW 17 20 9 11 1015.4 1015.4 5.0
02/10:30pm 19.5 19.0 17.7 89 1.1 SSW 17 19 9 10 1015.5 1015.5 3.0
02/10:00pm 21.5 23.8 20.7 95 0.5 SSW 9 11 5 6 1015.6 1015.6 3.0
02/09:30pm 21.8 25.8 20.6 93 0.8 CALM 0 0 0 0 1015.5 1015.5 3.0
02/09:00pm 21.8 23.7 20.6 93 0.8 ENE 11 15 6 8 1015.2 1015.2 3.0
02/08:42pm 21.7 23.2 20.6 93 0.7 NE 13 13 7 7 1015.4 1015.4 3.0
02/08:30pm 21.6 23.6 20.7 95 0.6 ENE 11 13 6 7 1015.4 1015.4 3.0
02/08:23pm 21.9 24.2 20.7 93 0.8 SE 9 13 5 7 1015.3 1015.3 2.4
02/08:00pm 23.1 25.0 19.7 81 2.2 ESE 9 11 5 6 1015.6 1015.6 0.2
02/07:30pm 23.4 23.9 19.2 77 2.7 ENE 15 20 8 11 1014.6 1014.6 0.2
02/07:00pm 23.7 24.5 19.0 75 3.0 NE 13 17 7 9 1014.9 1014.9 0.2
02/06:30pm 24.0 25.2 19.1 74 3.1 ENE 11 15 6 8 1014.7 1014.7 0.2
02/06:00pm 24.0 25.8 19.5 76 2.9 ENE 9 13 5 7 1014.5 1014.5 0.2
02/05:30pm 24.3 25.4 19.6 75 3.0 ENE 13 17 7 9 1014.0 1014.0 0.2
02/05:00pm 25.0 26.3 19.2 70 3.7 ENE 11 17 6 9 1013.9 1013.9 0.2
02/04:30pm 25.4 25.6 19.3 69 3.9 ENE 17 22 9 12 1013.2 1013.1 0.2
02/04:00pm 26.5 26.5 18.9 63 4.9 ENE 17 22 9 12 1012.9 1012.8 0.2
02/03:30pm 26.6 27.0 18.1 59 5.4 ENE 13 19 7 10 1012.9 1012.8 0.2
02/03:00pm 26.8 26.7 17.0 55 6.1 ENE 13 19 7 10 1012.7 1012.6 0.2
02/02:30pm 27.0 27.1 18.4 59 5.5 NE 15 22 8 12 1012.6 1012.5 0.2
02/02:00pm 27.1 27.4 17.9 57 5.8 NE 13 20 7 11 1013.0 1012.9 0.0
02/01:30pm 27.4 28.7 18.5 58 5.7 NE 9 13 5 7 1013.3 1013.2 0.0
02/01:00pm 26.9 29.3 18.8 61 5.2 NW 4 13 2 7 1014.0 1014.0 0.0
02/12:30pm 26.4 28.3 18.6 62 5.0 SSW 6 13 3 7 1014.4 1014.4 0.0
02/12:00pm 25.9 28.1 19.2 66 4.3 E 6 13 3 7 1014.8 1014.8 0.0
02/11:30am 25.6 29.1 19.6 69 3.9 CALM 0 7 0 4 1015.2 1015.2 0.0
02/11:00am 24.2 27.4 20.4 79 2.5 SW 4 11 2 6 1016.1 1016.1 0.0
02/10:30am 23.3 25.8 20.2 83 2.0 SW 7 9 4 5 1016.7 1016.7 0.0
02/10:09am 22.8 26.1 20.0 84 1.8 SW 2 7 1 4 1016.9 1016.9 0.0
02/10:00am 22.5 25.5 20.0 86 1.6 SW 4 7 2 4 1017.1 1017.1 0.0
02/09:30am 22.0 24.4 20.0 88 1.3 SW 7 11 4 6 1017.4 1017.4 0.0
02/09:00am 21.0 23.0 19.9 93 0.7 SSW 9 11 5 6 1017.4 1017.4 0.8
02/08:30am 20.2 22.6 19.7 97 0.3 SSW 6 9 3 5 1017.1 1017.1 0.8
02/08:00am 19.7 21.7 19.2 97 0.3 SSW 7 11 4 6 1017.1 1017.1 0.8
02/07:30am 19.3 21.2 19.0 98 0.2 SSW 7 9 4 5 1017.1 1017.1 0.8
02/07:25am 19.2 21.1 18.9 98 0.2 SSW 7 9 4 5 1017.0 1017.0 0.8
02/07:00am 18.6 21.5 18.3 98 0.2 CALM 0 0 0 0 1016.9 1016.9 0.8
02/06:36am 18.5 19.7 18.2 98 0.2 SSE 9 9 5 5 1016.7 1016.7 0.8
02/06:34am 18.5 19.7 18.2 98 0.2 SSE 9 9 5 5 1016.7 1016.7 0.8
02/06:30am 18.5 20.1 18.2 98 0.2 SSE 7 9 4 5 1016.7 1016.7 0.8
02/06:00am 19.0 20.8 18.8 99 0.1 SW 7 9 4 5 1016.5 1016.5 0.8
02/05:32am 18.9 21.9 18.4 97 0.3 CALM 0 0 0 0 1016.0 1016.0 0.8
02/05:30am 18.8 21.8 18.5 98 0.2 CALM 0 0 0 0 1015.9 1015.9 0.8
02/05:25am 18.7 21.6 18.2 97 0.3 CALM 0 2 0 1 1015.9 1015.9 0.8
02/05:00am 18.5 20.9 18.0 97 0.3 W 2 7 1 4 1015.5 1015.5 0.8
02/04:30am 18.4 21.3 18.1 98 0.2 CALM 0 0 0 0 1015.3 1015.3 0.8
02/04:17am 18.4 20.5 18.1 98 0.2 N 4 7 2 4 1015.1 1015.1 0.8
02/04:00am 18.4 20.1 18.1 98 0.2 N 6 9 3 5 1015.1 1015.1 0.8
02/03:58am 18.3 20.4 18.0 98 0.2 NNW 4 7 2 4 1015.1 1015.1 0.8
02/03:30am 18.9 21.9 18.4 97 0.3 CALM 0 0 0 0 1015.1 1015.1 0.8
02/03:00am 19.0 21.6 18.4 96 0.4 S 2 7 1 4 1015.0 1015.0 0.8
02/02:30am 19.5 22.7 18.9 96 0.4 CALM 0 0 0 0 1015.2 1015.2 0.8
02/02:00am 19.7 20.6 19.2 97 0.3 S 13 15 7 8 1015.3 1015.3 0.8
02/01:30am 19.7 21.0 19.2 97 0.3 SSW 11 13 6 7 1015.0 1015.0 0.8
02/01:00am 19.8 22.8 19.3 97 0.3 NE 2 7 1 4 1014.8 1014.8 0.8
02/12:30am 19.5 21.4 19.0 97 0.3 NNE 7 9 4 5 1015.2 1015.2 0.8
02/12:00am 19.7 22.2 19.1 96 0.4 NW 4 7 2 4 1015.9 1015.9 0.8
 
Date/Time
EST
Tmp

°C
App
Tmp
°C
Dew
Point
°C
Rel
Hum
%
Delta-T

°C
Wind Press
QNH
hPa
Press
MSL
hPa
Rain
since
9 am
mm
Dir
 
Spd
km/h
Gust
km/h
Spd
kts
Gust
kts
01/11:30pm 19.9 22.8 19.1 95 0.5 E 2 7 1 4 1016.2 1016.2 0.8
01/11:00pm 20.1 23.5 19.3 95 0.5 CALM 0 0 0 0 1016.6 1016.6 0.8
01/10:30pm 20.4 23.9 19.5 95 0.6 CALM 0 0 0 0 1016.7 1016.7 0.8
01/10:00pm 20.5 22.7 19.7 95 0.5 SSW 7 9 4 5 1017.0 1017.0 0.8
01/09:30pm 20.2 23.5 19.2 94 0.6 CALM 0 0 0 0 1016.7 1016.7 0.8
01/09:00pm 20.9 24.4 19.6 92 0.8 CALM 0 0 0 0 1017.0 1017.0 0.8
01/08:30pm 20.9 23.3 19.6 92 0.8 ESE 6 6 3 3 1016.7 1016.7 0.8
01/08:00pm 21.4 23.3 19.7 90 1.1 E 9 11 5 6 1016.3 1016.3 0.8
01/07:30pm 20.9 23.3 19.6 92 0.8 NE 6 9 3 5 1016.6 1016.6 0.8
01/07:00pm 21.2 23.4 19.6 90 1.0 S 7 9 4 5 1016.6 1016.6 0.8
01/06:30pm 22.1 24.3 19.6 86 1.6 NE 7 7 4 4 1015.6 1015.6 0.8

Latest Capital City Observations: Canberra | Sydney | Melbourne | Brisbane | Adelaide | Perth | Hobart | Darwin

Other Formats:

Comma delimited format used in spreadsheet applications
http://www.bom.gov.au/fwo/IDQ60901/IDQ60901.94568.axf

JavaScript Object Notation format (JSON) in row-major order
http://www.bom.gov.au/fwo/IDQ60901/IDQ60901.94568.json